Home > Products > Valid Products > TAF

000
FTUS45 KVEF 011232 AAA
TAFLAS
TAF AMD
KLAS 011232Z 0113/0212 22020G30KT P6SM FEW070 FEW110 BKN200
     FM011400 20015KT P6SM FEW120 SCT150 BKN200
     FM011600 15006KT P6SM FEW120 SCT250
     FM020000 20012G20KT P6SM SCT120 BKN220=



000
FTUS45 KVEF 011232 AAA
TAFLAS
TAF AMD
KLAS 011232Z 0113/0212 22020G30KT P6SM FEW070 FEW110 BKN200
     FM011400 20015KT P6SM FEW120 SCT150 BKN200
     FM011600 15006KT P6SM FEW120 SCT250
     FM020000 20012G20KT P6SM SCT120 BKN220=



000
FTUS45 KVEF 011135
TAFVGT
TAF
KVGT 011135Z 0112/0212 21017G25KT P6SM VCSH SCT100 BKN150 BKN200
     FM011300 20012KT P6SM FEW120 SCT150 BKN200
     FM011700 14007KT P6SM SCT120 BKN220
     FM020100 23009KT P6SM SCT120 BKN220=



000
FTUS45 KVEF 011135
TAFDAG
TAF
KDAG 011135Z 0112/0212 13018G30KT P6SM -SHRA SCT120 BKN150
     FM011400 11012G20KT P6SM FEW120 BKN150
     FM011900 29010KT P6SM SCT150 BKN250
     FM020200 25015G22KT P6SM SCT150 BKN250=



000
FTUS45 KVEF 011135
TAFBIH
TAF
KBIH 011135Z 0112/0212 33006KT P6SM FEW120 SCT200
     FM011500 18015G25KT P6SM -TSRA SCT100CB BKN140
     FM011800 16010KT P6SM SCT120 BKN150
     FM020300 33006KT P6SM FEW120 SCT200=



000
FTUS45 KVEF 011135
TAFEED
TAF
KEED 011135Z 0112/0212 27020G30KT 6SM -TSRA FEW020 SCT110CB BKN150
     FM011300 22012KT P6SM SCT110 BKN150
     FM011800 21012G20KT P6SM SCT130
     FM020400 24011KT P6SM SCT130 BKN250=



000
FTUS45 KVEF 011135
TAFLAS
TAF
KLAS 011135Z 0112/0212 22020G28KT P6SM VCSH SCT100 BKN150 BKN200
     FM011300 20015KT P6SM FEW120 SCT150 BKN200
     FM011500 15006KT P6SM FEW120 BKN220
     FM020000 20012G20KT P6SM SCT120 BKN220=



000
FTUS45 KVEF 011135
TAFLAS
TAF
KLAS 011135Z 0112/0212 22020G28KT P6SM VCSH SCT100 BKN150 BKN200
     FM011300 20015KT P6SM FEW120 SCT150 BKN200
     FM011500 15006KT P6SM FEW120 BKN220
     FM020000 20012G20KT P6SM SCT120 BKN220=



000
FTUS45 KVEF 011135
TAFDAG
TAF
KDAG 011135Z 0112/0212 13018G30KT P6SM -SHRA SCT120 BKN150
     FM011400 11012G20KT P6SM FEW120 BKN150
     FM011900 29010KT P6SM SCT150 BKN250
     FM020200 25015G22KT P6SM SCT150 BKN250=



000
FTUS45 KVEF 011135
TAFBIH
TAF
KBIH 011135Z 0112/0212 33006KT P6SM FEW120 SCT200
     FM011500 18015G25KT P6SM -TSRA SCT100CB BKN140
     FM011800 16010KT P6SM SCT120 BKN150
     FM020300 33006KT P6SM FEW120 SCT200=



000
FTUS45 KVEF 011135
TAFVGT
TAF
KVGT 011135Z 0112/0212 21017G25KT P6SM VCSH SCT100 BKN150 BKN200
     FM011300 20012KT P6SM FEW120 SCT150 BKN200
     FM011700 14007KT P6SM SCT120 BKN220
     FM020100 23009KT P6SM SCT120 BKN220=



000
FTUS45 KVEF 011135
TAFLAS
TAF
KLAS 011135Z 0112/0212 22020G28KT P6SM VCSH SCT100 BKN150 BKN200
     FM011300 20015KT P6SM FEW120 SCT150 BKN200
     FM011500 15006KT P6SM FEW120 BKN220
     FM020000 20012G20KT P6SM SCT120 BKN220=



000
FTUS45 KVEF 011135
TAFEED
TAF
KEED 011135Z 0112/0212 27020G30KT 6SM -TSRA FEW020 SCT110CB BKN150
     FM011300 22012KT P6SM SCT110 BKN150
     FM011800 21012G20KT P6SM SCT130
     FM020400 24011KT P6SM SCT130 BKN250=



000
FTUS45 KVEF 011135
TAFLAS
TAF
KLAS 011135Z 0112/0212 22020G28KT P6SM VCSH SCT100 BKN150 BKN200
     FM011300 20015KT P6SM FEW120 SCT150 BKN200
     FM011500 15006KT P6SM FEW120 BKN220
     FM020000 20012G20KT P6SM SCT120 BKN220=



000
FTUS45 KVEF 011042 AAC
TAFVGT
TAF AMD
KVGT 011042Z 0111/0206 18017G25KT P6SM FEW110 SCT160 BKN200
     FM011200 18012KT P6SM FEW120 SCT160 BKN220
     FM011700 14007KT P6SM SCT120 BKN220
     FM020100 23009KT P6SM SCT120 BKN220=



000
FTUS45 KVEF 011042 AAC
TAFVGT
TAF AMD
KVGT 011042Z 0111/0206 18017G25KT P6SM FEW110 SCT160 BKN200
     FM011200 18012KT P6SM FEW120 SCT160 BKN220
     FM011700 14007KT P6SM SCT120 BKN220
     FM020100 23009KT P6SM SCT120 BKN220=



000
FTUS45 KVEF 011039 AAD
TAFEED
TAF AMD
KEED 011039Z 0111/0206 VRB20G30KT 5SM -TSRA SCT090 BKN110CB
     FM011200 14012G20KT P6SM FEW090 SCT120 BKN150
     FM011800 21012G20KT P6SM SCT130
     FM020400 24011KT P6SM SCT130 BKN250=



000
FTUS45 KVEF 011039 AAB
TAFDAG
TAF AMD
KDAG 011039Z 0111/0206 10020G30KT P6SM VCTS FEW080CB SCT150 BKN250
     FM011200 28010KT P6SM VCSH BKN150
     FM011900 29010KT P6SM SCT150 BKN250
     FM020200 25015G22KT P6SM SCT150 BKN250=



000
FTUS45 KVEF 011036 AAC
TAFLAS
TAF AMD
KLAS 011036Z 0111/0206 20026G36KT P6SM FEW110 SCT160 BKN200
     FM011130 20022G30KT P6SM FEW110 SCT160 BKN200
     FM011200 20015KT P6SM FEW120 BKN220
     FM011500 15006KT P6SM FEW120 BKN220
     FM020000 20010KT P6SM SCT120 BKN220=



000
FTUS45 KVEF 011036 AAC
TAFLAS
TAF AMD
KLAS 011036Z 0111/0206 20026G36KT P6SM FEW110 SCT160 BKN200
     FM011130 20022G30KT P6SM FEW110 SCT160 BKN200
     FM011200 20015KT P6SM FEW120 BKN220
     FM011500 15006KT P6SM FEW120 BKN220
     FM020000 20010KT P6SM SCT120 BKN220=



000
FTUS45 KVEF 010930 AAC
TAFEED
TAF AMD
KEED 010930Z 0110/0206 24012KT P6SM SCT130 BKN220
     FM011800 21012G20KT P6SM SCT130
     FM020400 24011KT P6SM SCT130 BKN250=



000
FTUS45 KVEF 010930 AAC
TAFEED
TAF AMD
KEED 010930Z 0110/0206 24012KT P6SM SCT130 BKN220
     FM011800 21012G20KT P6SM SCT130
     FM020400 24011KT P6SM SCT130 BKN250=



000
FTUS45 KVEF 010929 AAB
TAFVGT
TAF AMD
KVGT 010929Z 0109/0206 16015G25KT 6SM BLDU SCT120 BKN220
     FM011030 VRB06KT P6SM SCT120 BKN220
     FM011700 14007KT P6SM SCT120 BKN220
     FM020100 23009KT P6SM SCT120 BKN220=



000
FTUS45 KVEF 010927 AAB
TAFLAS
TAF AMD
KLAS 010927Z 0109/0206 16016G35KT 6SM BLDU SCT120 BKN220
      TEMPO 0109/0110 16030G45KT 3SM BLDU
     FM011030 21010KT P6SM FEW120 BKN220
     FM011500 15006KT P6SM FEW120 BKN220
     FM020000 20010KT P6SM SCT120 BKN220=



000
FTUS45 KVEF 010927 AAB
TAFLAS
TAF AMD
KLAS 010927Z 0109/0206 16016G35KT 6SM BLDU SCT120 BKN220
      TEMPO 0109/0110 16030G45KT 3SM BLDU
     FM011030 21010KT P6SM FEW120 BKN220
     FM011500 15006KT P6SM FEW120 BKN220
     FM020000 20010KT P6SM SCT120 BKN220=



000
FTUS45 KVEF 010927 AAB
TAFLAS
TAF AMD
KLAS 010927Z 0109/0206 16016G35KT 6SM BLDU SCT120 BKN220
      TEMPO 0109/0110 16030G45KT 3SM BLDU
     FM011030 21010KT P6SM FEW120 BKN220
     FM011500 15006KT P6SM FEW120 BKN220
     FM020000 20010KT P6SM SCT120 BKN220=



000
FTUS45 KVEF 010927 AAB
TAFLAS
TAF AMD
KLAS 010927Z 0109/0206 16016G35KT 6SM BLDU SCT120 BKN220
      TEMPO 0109/0110 16030G45KT 3SM BLDU
     FM011030 21010KT P6SM FEW120 BKN220
     FM011500 15006KT P6SM FEW120 BKN220
     FM020000 20010KT P6SM SCT120 BKN220=



000
FTUS45 KVEF 010836 AAA
TAFDAG
TAF AMD
KDAG 010836Z 0109/0206 27010KT P6SM VCTS FEW080CB SCT150 BKN250
     FM011200 28010KT P6SM VCSH BKN150
     FM011900 29010KT P6SM SCT150 BKN250
     FM020200 25015G22KT P6SM SCT150 BKN250=



000
FTUS45 KVEF 010803 AAA
TAFVGT
TAF AMD
KVGT 010803Z 0108/0206 22008KT P6SM FEW120 BKN220
     FM010840 33014G23KT P6SM VCSH SCT120 BKN220
     FM011030 VRB06KT P6SM SCT120 BKN220
     FM011700 14007KT P6SM SCT120 BKN220
     FM020100 23009KT P6SM SCT120 BKN220=



000
FTUS45 KVEF 010801 AAA
TAFLAS
TAF AMD
KLAS 010801Z 0108/0206 21010KT P6SM FEW120 BKN220
     FM010900 32011G20KT P6SM VCSH SCT120 BKN220
     FM011030 21010KT P6SM FEW120 BKN220
     FM011500 15006KT P6SM FEW120 BKN220
     FM020000 20010KT P6SM SCT120 BKN220=



000
FTUS45 KVEF 010801 AAA
TAFLAS
TAF AMD
KLAS 010801Z 0108/0206 21010KT P6SM FEW120 BKN220
     FM010900 32011G20KT P6SM VCSH SCT120 BKN220
     FM011030 21010KT P6SM FEW120 BKN220
     FM011500 15006KT P6SM FEW120 BKN220
     FM020000 20010KT P6SM SCT120 BKN220=



000
FTUS45 KVEF 010749 AAB
TAFEED
TAF AMD
KEED 010749Z 0108/0206 24010KT P6SM VCTS FEW080CB SCT130 BKN220
      TEMPO 0108/0109 VRB25G40KT 3SM TSRA BKN080CB
     FM010900 24010KT P6SM SCT130 BKN220
     FM011800 21012G20KT P6SM SCT130
     FM020400 24011KT P6SM SCT130 BKN250=



000
FTUS45 KVEF 010616 AAA
TAFEED
TAF AMD
KEED 010616Z 0106/0206 24010KT P6SM VCTS FEW080CB SCT130 BKN220
     FM010800 24010KT P6SM SCT130 BKN220
     FM011800 21012G20KT P6SM SCT130
     FM020400 24011KT P6SM SCT130 BKN250=



000
FTUS45 KVEF 010616 AAA
TAFEED
TAF AMD
KEED 010616Z 0106/0206 24010KT P6SM VCTS FEW080CB SCT130 BKN220
     FM010800 24010KT P6SM SCT130 BKN220
     FM011800 21012G20KT P6SM SCT130
     FM020400 24011KT P6SM SCT130 BKN250=



000
FTUS45 KVEF 010520
TAFLAS
TAF
KLAS 010520Z 0106/0206 21010KT P6SM FEW120 BKN220
     FM011500 15006KT P6SM FEW120 BKN220
     FM020000 20010KT P6SM SCT120 BKN220=



000
FTUS45 KVEF 010520
TAFLAS
TAF
KLAS 010520Z 0106/0206 21010KT P6SM FEW120 BKN220
     FM011500 15006KT P6SM FEW120 BKN220
     FM020000 20010KT P6SM SCT120 BKN220=



000
FTUS45 KVEF 010520
TAFEED
TAF
KEED 010520Z 0106/0206 24010KT P6SM SCT130 BKN220
     FM011800 21012G20KT P6SM SCT130
     FM020400 24011KT P6SM SCT130 BKN250=



000
FTUS45 KVEF 010520
TAFLAS
TAF
KLAS 010520Z 0106/0206 21010KT P6SM FEW120 BKN220
     FM011500 15006KT P6SM FEW120 BKN220
     FM020000 20010KT P6SM SCT120 BKN220=



000
FTUS45 KVEF 010520
TAFBIH
TAF
KBIH 010520Z 0106/0206 33006KT P6SM FEW120 SCT200
     FM011300 VRB05KT P6SM FEW120 SCT200
     FM012000 15010KT P6SM SCT120 BKN150
     FM020300 33006KT P6SM FEW120 SCT200=



000
FTUS45 KVEF 010520
TAFVGT
TAF
KVGT 010520Z 0106/0206 22008KT P6SM SCT120 BKN220
     FM011200 VRB05KT P6SM FEW120 BKN220
     FM011700 14007KT P6SM SCT120 BKN220
     FM020100 23009KT P6SM SCT120 BKN220=



000
FTUS45 KVEF 010520
TAFDAG
TAF
KDAG 010520Z 0106/0206 27014KT P6SM SCT150 BKN250
     FM011200 28010KT P6SM VCSH BKN150
     FM011900 29010KT P6SM SCT150 BKN250
     FM020200 25015G22KT P6SM SCT150 BKN250=



000
FTUS45 KVEF 010520
TAFDAG
TAF
KDAG 010520Z 0106/0206 27014KT P6SM SCT150 BKN250
     FM011200 28010KT P6SM VCSH BKN150
     FM011900 29010KT P6SM SCT150 BKN250
     FM020200 25015G22KT P6SM SCT150 BKN250=



000
FTUS45 KVEF 010520
TAFVGT
TAF
KVGT 010520Z 0106/0206 22008KT P6SM SCT120 BKN220
     FM011200 VRB05KT P6SM FEW120 BKN220
     FM011700 14007KT P6SM SCT120 BKN220
     FM020100 23009KT P6SM SCT120 BKN220=



000
FTUS45 KVEF 010520
TAFEED
TAF
KEED 010520Z 0106/0206 24010KT P6SM SCT130 BKN220
     FM011800 21012G20KT P6SM SCT130
     FM020400 24011KT P6SM SCT130 BKN250=



000
FTUS45 KVEF 010520
TAFLAS
TAF
KLAS 010520Z 0106/0206 21010KT P6SM FEW120 BKN220
     FM011500 15006KT P6SM FEW120 BKN220
     FM020000 20010KT P6SM SCT120 BKN220=



000
FTUS45 KVEF 010520
TAFBIH
TAF
KBIH 010520Z 0106/0206 33006KT P6SM FEW120 SCT200
     FM011300 VRB05KT P6SM FEW120 SCT200
     FM012000 15010KT P6SM SCT120 BKN150
     FM020300 33006KT P6SM FEW120 SCT200=



000
FTUS45 KVEF 010246 AAA
TAFLAS
TAF AMD
KLAS 010246Z 0103/0124 21010KT P6SM SCT120 BKN220
     FM011500 15006KT P6SM SCT120 BKN220=



000
FTUS45 KVEF 010046 AAA
TAFBIH
TAF AMD
KBIH 010046Z 0101/0124 17010KT P6SM VCSH SCT110 BKN150
     FM010300 33006KT P6SM FEW120 SCT200
     FM011300 VRB05KT P6SM FEW120 SCT200
     FM012000 15010KT P6SM SCT120 BKN150=



000
FTUS45 KVEF 010044 AAA
TAFDAG
TAF AMD
KDAG 010044Z 0101/0124 23020KT P6SM FEW120 SCT150 BKN250
     FM010300 24014KT P6SM SCT150 BKN250
     FM010700 26010KT P6SM SCT150 BKN250=



000
FTUS45 KVEF 010044 AAA
TAFDAG
TAF AMD
KDAG 010044Z 0101/0124 23020KT P6SM FEW120 SCT150 BKN250
     FM010300 24014KT P6SM SCT150 BKN250
     FM010700 26010KT P6SM SCT150 BKN250=



000
FTUS45 KVEF 302320
TAFLAS
TAF
KLAS 302320Z 0100/0124 15006KT P6SM FEW120 SCT150 BKN220
     FM010300 21010KT P6SM SCT120 BKN220
     FM011500 15006KT P6SM SCT120 BKN220=



000
FTUS45 KVEF 302320
TAFLAS
TAF
KLAS 302320Z 0100/0124 15006KT P6SM FEW120 SCT150 BKN220
     FM010300 21010KT P6SM SCT120 BKN220
     FM011500 15006KT P6SM SCT120 BKN220=



000
FTUS45 KVEF 302320
TAFEED
TAF
KEED 302320Z 0100/0124 20010G20KT P6SM SCT130
     FM010300 24010KT P6SM SCT130 BKN220
     FM011800 21012G20KT P6SM SCT130=



000
FTUS45 KVEF 302320
TAFBIH
TAF
KBIH 302320Z 0100/0124 17012KT P6SM SCT110 BKN150
      TEMPO 0100/0102 VRB20G30KT -TSRA BKN110CB
     FM010300 33006KT P6SM FEW120 SCT200
     FM011300 VRB05KT P6SM FEW120 SCT200
     FM012000 15010KT P6SM SCT120 BKN150=



000
FTUS45 KVEF 302320
TAFDAG
TAF
KDAG 302320Z 0100/0124 06008KT P6SM SCT120 SCT150 BKN220
     FM010100 25014KT P6SM SCT120 SCT150 BKN220=



000
FTUS45 KVEF 302320
TAFVGT
TAF
KVGT 302320Z 0100/0124 16008KT P6SM SCT120 SCT150 BKN220
     FM010300 22008KT P6SM SCT120 BKN220
     FM011200 VRB05KT P6SM SCT120 BKN220
     FM011700 14007KT P6SM SCT120 BKN220=



000
FTUS45 KVEF 302048 AAA
TAFLAS
TAF AMD
KLAS 302048Z 3021/0118 15006KT P6SM FEW120 SCT150 BKN220
     FM010200 21010KT P6SM SCT120 BKN220
     FM011500 15006KT P6SM SCT120 BKN220=



000
FTUS45 KVEF 302048 AAA
TAFLAS
TAF AMD
KLAS 302048Z 3021/0118 15006KT P6SM FEW120 SCT150 BKN220
     FM010200 21010KT P6SM SCT120 BKN220
     FM011500 15006KT P6SM SCT120 BKN220=



000
FTUS45 KVEF 301720
TAFLAS
TAF
KLAS 301720Z 3018/0118 15006KT P6SM FEW120 SCT150 BKN220
     FM010200 21010KT P6SM SCT120 BKN220
     FM011500 15006KT P6SM SCT120 BKN220=



000
FTUS45 KVEF 301720
TAFBIH
TAF
KBIH 301720Z 3018/0118 VRB04KT P6SM FEW150 SCT200
     FM302000 17012G20KT P6SM FEW110 SCT150
     FM010300 33006KT P6SM FEW120 SCT200=



000
FTUS45 KVEF 301720
TAFEED
TAF
KEED 301720Z 3018/0118 19008KT P6SM SCT130
     FM010300 24010KT P6SM SCT130 BKN220=



000
FTUS45 KVEF 301720
TAFBIH
TAF
KBIH 301720Z 3018/0118 VRB04KT P6SM FEW150 SCT200
     FM302000 17012G20KT P6SM FEW110 SCT150
     FM010300 33006KT P6SM FEW120 SCT200=



000
FTUS45 KVEF 301720
TAFLAS
TAF
KLAS 301720Z 3018/0118 15006KT P6SM FEW120 SCT150 BKN220
     FM010200 21010KT P6SM SCT120 BKN220
     FM011500 15006KT P6SM SCT120 BKN220=



000
FTUS45 KVEF 301720
TAFVGT
TAF
KVGT 301720Z 3018/0118 14007KT P6SM SCT120 SCT150 BKN220
     FM010200 24008KT P6SM SCT120 BKN220
     FM011200 VRB05KT P6SM SCT120 BKN220=



000
FTUS45 KVEF 301720
TAFLAS
TAF
KLAS 301720Z 3018/0118 15006KT P6SM FEW120 SCT150 BKN220
     FM010200 21010KT P6SM SCT120 BKN220
     FM011500 15006KT P6SM SCT120 BKN220=



000
FTUS45 KVEF 301720
TAFDAG
TAF
KDAG 301720Z 3018/0118 31008KT P6SM SCT150 SCT220
     FM302000 06008KT P6SM SCT120 SCT150 BKN220
     FM010100 25014KT P6SM SCT120 SCT150 BKN220=



000
FTUS45 KVEF 301720
TAFEED
TAF
KEED 301720Z 3018/0118 19008KT P6SM SCT130
     FM010300 24010KT P6SM SCT130 BKN220=



000
FTUS45 KVEF 301720
TAFVGT
TAF
KVGT 301720Z 3018/0118 14007KT P6SM SCT120 SCT150 BKN220
     FM010200 24008KT P6SM SCT120 BKN220
     FM011200 VRB05KT P6SM SCT120 BKN220=



000
FTUS45 KVEF 301720
TAFLAS
TAF
KLAS 301720Z 3018/0118 15006KT P6SM FEW120 SCT150 BKN220
     FM010200 21010KT P6SM SCT120 BKN220
     FM011500 15006KT P6SM SCT120 BKN220=



000
FTUS45 KVEF 301720
TAFDAG
TAF
KDAG 301720Z 3018/0118 31008KT P6SM SCT150 SCT220
     FM302000 06008KT P6SM SCT120 SCT150 BKN220
     FM010100 25014KT P6SM SCT120 SCT150 BKN220=



000
FTUS45 KVEF 301401 AAB
TAFLAS
TAF AMD
KLAS 301401Z 3014/0112 15006KT P6SM FEW120 SCT150 BKN200
     FM010100 21010KT P6SM SCT120 BKN220=



000
FTUS45 KVEF 301401 AAB
TAFLAS
TAF AMD
KLAS 301401Z 3014/0112 15006KT P6SM FEW120 SCT150 BKN200
     FM010100 21010KT P6SM SCT120 BKN220=



000
FTUS45 KVEF 301222 AAA
TAFLAS
TAF AMD
KLAS 301222Z 3012/0112 21007KT P6SM SCT120 BKN150 OVC200
     FM301500 VRB06KT P6SM SCT120 SCT150
     FM010100 21010KT P6SM SCT120 BKN220=



000
FTUS45 KVEF 301138
TAFLAS
TAF
KLAS 301138Z 3012/0112 21010G16KT P6SM SCT120 BKN150 OVC200
     FM301500 VRB06KT P6SM SCT120 SCT150
     FM010100 21010KT P6SM SCT120 BKN220=



000
FTUS45 KVEF 301138
TAFDAG
TAF
KDAG 301138Z 3012/0112 26008KT P6SM SCT150 BKN200
     FM301600 31008KT P6SM SCT150 BKN200
     FM301900 06008KT P6SM SCT120 SCT150
     FM010100 26014KT P6SM SCT120 SCT150=



000
FTUS45 KVEF 301138
TAFVGT
TAF
KVGT 301138Z 3012/0112 VRB05KT P6SM SCT120 BKN150 OVC200
     FM301500 14007KT P6SM SCT120 SCT150
     FM010200 24008KT P6SM SCT120 BKN220=



000
FTUS45 KVEF 301138
TAFBIH
TAF
KBIH 301138Z 3012/0112 VRB04KT P6SM FEW150 SCT200
     FM301900 17012G20KT P6SM FEW110 SCT150
     FM010300 33006KT P6SM FEW120 SCT200=



000
FTUS45 KVEF 301138
TAFLAS
TAF
KLAS 301138Z 3012/0112 21010G16KT P6SM SCT120 BKN150 OVC200
     FM301500 VRB06KT P6SM SCT120 SCT150
     FM010100 21010KT P6SM SCT120 BKN220=



000
FTUS45 KVEF 301138
TAFEED
TAF
KEED 301138Z 3012/0112 24008KT P6SM FEW120 SCT150 BKN220
     FM302000 19006KT P6SM SCT130
     FM010300 25010KT P6SM SCT130 BKN220=



000
FTUS45 KVEF 300847 AAA
TAFLAS
TAF AMD
KLAS 300847Z 3009/0106 15010KT P6SM FEW120 BKN150 BKN220
      TEMPO 3009/3010 15015G25KT
     FM301000 21010KT P6SM FEW120 SCT150 BKN220
     FM301500 VRB06KT P6SM SCT120 SCT150
     FM010100 21010KT P6SM SCT120 SCT220=



000
FTUS45 KVEF 300847 AAA
TAFLAS
TAF AMD
KLAS 300847Z 3009/0106 15010KT P6SM FEW120 BKN150 BKN220
      TEMPO 3009/3010 15015G25KT
     FM301000 21010KT P6SM FEW120 SCT150 BKN220
     FM301500 VRB06KT P6SM SCT120 SCT150
     FM010100 21010KT P6SM SCT120 SCT220=



000
FTUS45 KVEF 300847 AAA
TAFLAS
TAF AMD
KLAS 300847Z 3009/0106 15010KT P6SM FEW120 BKN150 BKN220
      TEMPO 3009/3010 15015G25KT
     FM301000 21010KT P6SM FEW120 SCT150 BKN220
     FM301500 VRB06KT P6SM SCT120 SCT150
     FM010100 21010KT P6SM SCT120 SCT220=



000
FTUS45 KVEF 300847 AAA
TAFLAS
TAF AMD
KLAS 300847Z 3009/0106 15010KT P6SM FEW120 BKN150 BKN220
      TEMPO 3009/3010 15015G25KT
     FM301000 21010KT P6SM FEW120 SCT150 BKN220
     FM301500 VRB06KT P6SM SCT120 SCT150
     FM010100 21010KT P6SM SCT120 SCT220=



000
FTUS45 KVEF 300733 AAA
TAFEED
TAF AMD
KEED 300733Z 3008/0106 24011KT P6SM FEW130 BKN220
      TEMPO 3008/3009 08015G30KT
     FM302000 21009KT P6SM SCT130
     FM010300 25010KT P6SM SCT130 BKN220=



000
FTUS45 KVEF 300520
TAFVGT
TAF
KVGT 300520Z 3006/0106 VRB06KT P6SM FEW120 SCT150 BKN220
     FM301500 14007KT P6SM SCT120 SCT150
     FM010200 24008KT P6SM SCT120 SCT220=



000
FTUS45 KVEF 300520
TAFLAS
TAF
KLAS 300520Z 3006/0106 21010KT P6SM FEW120 SCT150 BKN220
     FM301500 VRB06KT P6SM SCT120 SCT150
     FM010100 21010KT P6SM SCT120 SCT220=



000
FTUS45 KVEF 300520
TAFEED
TAF
KEED 300520Z 3006/0106 24006KT P6SM SCT130 BKN220
     FM300800 VRB04KT P6SM FEW130 BKN220
     FM302000 21009KT P6SM SCT130
     FM010300 25010KT P6SM SCT130 BKN220=



000
FTUS45 KVEF 300520
TAFBIH
TAF
KBIH 300520Z 3006/0106 32005KT P6SM FEW120
     FM301400 VRB04KT P6SM FEW150 SCT200
     FM301900 17012G20KT P6SM FEW110 SCT150
     FM010300 33006KT P6SM FEW120 SCT200=



000
FTUS45 KVEF 300520
TAFDAG
TAF
KDAG 300520Z 3006/0106 26011KT P6SM SCT120 BKN200
     FM301600 31008KT P6SM SCT120
     FM301900 06008KT P6SM SCT120 SCT150
     FM010100 26014KT P6SM SCT120 SCT150=



000
FTUS45 KVEF 300520
TAFLAS
TAF
KLAS 300520Z 3006/0106 21010KT P6SM FEW120 SCT150 BKN220
     FM301500 VRB06KT P6SM SCT120 SCT150
     FM010100 21010KT P6SM SCT120 SCT220=



000
FTUS45 KVEF 300251 AAB
TAFLAS
TAF AMD
KLAS 300251Z 3003/3024 30006KT P6SM FEW120 BKN150 BKN220
     FM300400 24010KT P6SM FEW120 BKN150 BKN220
     FM301500 VRB06KT P6SM SCT110 SCT150=



000
FTUS45 KVEF 300251 AAB
TAFLAS
TAF AMD
KLAS 300251Z 3003/3024 30006KT P6SM FEW120 BKN150 BKN220
     FM300400 24010KT P6SM FEW120 BKN150 BKN220
     FM301500 VRB06KT P6SM SCT110 SCT150=



000
FTUS45 KVEF 300238 AAA
TAFVGT
TAF AMD
KVGT 300238Z 3003/3024 23011G21KT P6SM SCT120 BKN150
     FM300400 28006KT P6SM SCT120 BKN150
     FM301500 14007KT P6SM SCT110 SCT150=



000
FTUS45 KVEF 300238 AAA
TAFVGT
TAF AMD
KVGT 300238Z 3003/3024 23011G21KT P6SM SCT120 BKN150
     FM300400 28006KT P6SM SCT120 BKN150
     FM301500 14007KT P6SM SCT110 SCT150=



000
FTUS45 KVEF 300154 AAA
TAFLAS
TAF AMD
KLAS 300154Z 3002/3024 VRB06KT P6SM SCT110 SCT150 BKN220
      TEMPO 3002/3003 VRB15G30KT 6SM -TSRA BLDU FEW100CB BKN140
     FM300400 24010KT P6SM SCT110 BKN150
     FM301500 VRB06KT P6SM SCT110 SCT150=



000
FTUS45 KVEF 300154 AAA
TAFLAS
TAF AMD
KLAS 300154Z 3002/3024 VRB06KT P6SM SCT110 SCT150 BKN220
      TEMPO 3002/3003 VRB15G30KT 6SM -TSRA BLDU FEW100CB BKN140
     FM300400 24010KT P6SM SCT110 BKN150
     FM301500 VRB06KT P6SM SCT110 SCT150=



000
FTUS45 KVEF 292320
TAFBIH
TAF
KBIH 292320Z 3000/3024 15012KT P6SM FEW120 SCT150 BKN200
     FM300400 16008KT P6SM FEW150 BKN200
     FM300700 32005KT P6SM FEW150 SCT200
     FM301400 VRB04KT P6SM FEW150 SCT200
     FM301900 17012G20KT P6SM FEW110 SCT150=



000
FTUS45 KVEF 292320
TAFLAS
TAF
KLAS 292320Z 3000/3024 VRB06KT P6SM SCT110 SCT150 BKN220
      TEMPO 3000/3003 14012G20KT
     FM300400 24010KT P6SM SCT110 BKN150
     FM301500 VRB06KT P6SM SCT110 SCT150=



000
FTUS45 KVEF 292320
TAFDAG
TAF
KDAG 292320Z 3000/3024 05008KT P6SM SCT120 BKN200
     FM300200 26010KT P6SM SCT120 BKN200
     FM301600 31008KT P6SM SCT120
     FM302100 06008KT P6SM SCT120 SCT150=



000
FTUS45 KVEF 292320
TAFVGT
TAF
KVGT 292320Z 3000/3024 13010KT P6SM SCT110 SCT150 BKN220
     FM300500 29006KT P6SM SCT110 BKN150
     FM301500 14007KT P6SM SCT110 SCT150=



000
FTUS45 KVEF 292320
TAFEED
TAF
KEED 292320Z 3000/3024 21008KT P6SM SCT130
     FM300300 24006KT P6SM SCT130 BKN220
     FM301300 VRB04KT P6SM FEW130
     FM302000 23009KT P6SM SCT130=



000
FTUS45 KVEF 292320
TAFLAS
TAF
KLAS 292320Z 3000/3024 VRB06KT P6SM SCT110 SCT150 BKN220
      TEMPO 3000/3003 14012G20KT
     FM300400 24010KT P6SM SCT110 BKN150
     FM301500 VRB06KT P6SM SCT110 SCT150=



000
FTUS45 KVEF 292046 AAA
TAFLAS
TAF AMD
KLAS 292046Z 2921/3018 13007KT P6SM FEW110 SCT150
     FM292300 19010KT P6SM SCT110 SCT150 BKN220=



000
FTUS45 KVEF 291727
TAFLAS
TAF
KLAS 291727Z 2918/3018 08006KT P6SM FEW110 SCT150
     FM292300 19010KT P6SM SCT110 SCT150 BKN220=



000
FTUS45 KVEF 291727
TAFVGT
TAF
KVGT 291727Z 2918/3018 14007KT P6SM FEW110 SCT150
     FM292300 18010KT P6SM SCT110 SCT150 BKN220
     FM300500 29006KT P6SM FEW150 BKN220=



000
FTUS45 KVEF 291727
TAFDAG
TAF
KDAG 291727Z 2918/3018 31010KT P6SM SCT130 BKN200
     FM292000 06009KT P6SM SCT130 BKN200
     FM300200 26010KT P6SM SCT130 BKN200=



000
FTUS45 KVEF 291727
TAFLAS
TAF
KLAS 291727Z 2918/3018 08006KT P6SM FEW110 SCT150
     FM292300 19010KT P6SM SCT110 SCT150 BKN220=



000
FTUS45 KVEF 291727
TAFEED
TAF
KEED 291727Z 2918/3018 11004KT P6SM FEW130
     FM292000 20008KT P6SM SCT130
     FM300300 24006KT P6SM SCT130 BKN220=



000
FTUS45 KVEF 291727
TAFBIH
TAF
KBIH 291727Z 2918/3018 14007KT P6SM FEW150 SCT200
     FM291900 17012G22KT P6SM FEW120 SCT150 BKN200
     FM300400 16008KT P6SM FEW150 BKN200
     FM300700 32005KT P6SM FEW150 SCT200=



000
FTUS45 KVEF 291439 AAB
TAFLAS
TAF AMD
KLAS 291439Z 2915/3012 VRB05KT P6SM FEW130 BKN220
     FM292200 19010KT P6SM SCT130 BKN220=



000
FTUS45 KVEF 291439 AAB
TAFLAS
TAF AMD
KLAS 291439Z 2915/3012 VRB05KT P6SM FEW130 BKN220
     FM292200 19010KT P6SM SCT130 BKN220=



000
FTUS45 KVEF 291439 AAB
TAFLAS
TAF AMD
KLAS 291439Z 2915/3012 VRB05KT P6SM FEW130 BKN220
     FM292200 19010KT P6SM SCT130 BKN220=



000
FTUS45 KVEF 291203 AAA
TAFVGT
TAF AMD
KVGT 291203Z 2912/3012 33005KT P6SM VCSH SCT130 BKN180
     FM291600 14007KT P6SM FEW130 BKN220
     FM292200 18010KT P6SM SCT130 BKN220
     FM300500 29006KT P6SM FEW150 SCT220=



000
FTUS45 KVEF 291202 AAA
TAFLAS
TAF AMD
KLAS 291202Z 2912/3012 18006KT P6SM VCSH SCT130 BKN180
     FM291500 VRB05KT P6SM FEW130 BKN220
     FM292000 19010KT P6SM SCT130 BKN220=



000
FTUS45 KVEF 291202 AAA
TAFLAS
TAF AMD
KLAS 291202Z 2912/3012 18006KT P6SM VCSH SCT130 BKN180
     FM291500 VRB05KT P6SM FEW130 BKN220
     FM292000 19010KT P6SM SCT130 BKN220=



000
FTUS45 KVEF 291120
TAFBIH
TAF
KBIH 291120Z 2912/3012 12003KT P6SM FEW150 SCT200
     FM291900 17014G24KT P6SM FEW120 SCT150 BKN200
     FM300500 16008KT P6SM FEW150 BKN200
     FM300800 22005KT P6SM FEW150 SCT200=



000
FTUS45 KVEF 291120
TAFVGT
TAF
KVGT 291120Z 2912/3012 33005KT P6SM FEW180 BKN220
     FM291600 14007KT P6SM FEW140 BKN220
     FM292200 18010KT P6SM SCT130 BKN220
     FM300500 29006KT P6SM FEW150 SCT220=



000
FTUS45 KVEF 291120
TAFLAS
TAF
KLAS 291120Z 2912/3012 19008KT P6SM FEW180 BKN220
     FM291500 VRB05KT P6SM FEW150 BKN220
     FM292000 19010KT P6SM SCT130 BKN220=



000
FTUS45 KVEF 291120
TAFDAG
TAF
KDAG 291120Z 2912/3012 28009KT P6SM BKN200
     FM291800 31012KT P6SM SCT130 BKN200
     FM300200 26010KT P6SM SCT130 BKN200=



000
FTUS45 KVEF 291120
TAFEED
TAF
KEED 291120Z 2912/3012 11004KT P6SM BKN200
     FM291900 19008KT P6SM FEW130 BKN200=



000
FTUS45 KVEF 290847 AAA
TAFLAS
TAF AMD
KLAS 290847Z 2909/3006 20008KT P6SM FEW180 OVC220
     FM291500 VRB05KT P6SM FEW150 BKN250
     FM292000 19010KT P6SM SCT130 BKN250=



000
FTUS45 KVEF 290847 AAA
TAFLAS
TAF AMD
KLAS 290847Z 2909/3006 20008KT P6SM FEW180 OVC220
     FM291500 VRB05KT P6SM FEW150 BKN250
     FM292000 19010KT P6SM SCT130 BKN250=



000
FTUS45 KVEF 290847 AAA
TAFLAS
TAF AMD
KLAS 290847Z 2909/3006 20008KT P6SM FEW180 OVC220
     FM291500 VRB05KT P6SM FEW150 BKN250
     FM292000 19010KT P6SM SCT130 BKN250=



000
FTUS45 KVEF 290520
TAFEED
TAF
KEED 290520Z 2906/3006 24011KT P6SM BKN200
     FM290700 25007KT P6SM SCT150 BKN200
     FM291900 19008KT P6SM FEW130 BKN250=



000
FTUS45 KVEF 290520
TAFLAS
TAF
KLAS 290520Z 2906/3006 23010KT P6SM FEW120 BKN200
     FM291500 VRB05KT P6SM FEW150 BKN250
     FM292000 19010KT P6SM SCT130 BKN250=



000
FTUS45 KVEF 290520
TAFVGT
TAF
KVGT 290520Z 2906/3006 27007KT P6SM FEW120 BKN200
     FM290700 33006KT P6SM FEW150 BKN200
     FM291600 14007KT P6SM FEW140 BKN250
     FM292200 18010KT P6SM SCT130 BKN250=



000
FTUS45 KVEF 290520
TAFDAG
TAF
KDAG 290520Z 2906/3006 26005KT P6SM BKN190
     FM290700 26009KT P6SM SCT150 BKN190
     FM291800 31012KT P6SM SCT130 BKN250
     FM300200 26010KT P6SM SCT130 BKN250=



000
FTUS45 KVEF 290520
TAFLAS
TAF
KLAS 290520Z 2906/3006 23010KT P6SM FEW120 BKN200
     FM291500 VRB05KT P6SM FEW150 BKN250
     FM292000 19010KT P6SM SCT130 BKN250=



000
FTUS45 KVEF 290520
TAFEED
TAF
KEED 290520Z 2906/3006 24011KT P6SM BKN200
     FM290700 25007KT P6SM SCT150 BKN200
     FM291900 19008KT P6SM FEW130 BKN250=



000
FTUS45 KVEF 290520
TAFDAG
TAF
KDAG 290520Z 2906/3006 26005KT P6SM BKN190
     FM290700 26009KT P6SM SCT150 BKN190
     FM291800 31012KT P6SM SCT130 BKN250
     FM300200 26010KT P6SM SCT130 BKN250=



000
FTUS45 KVEF 290520
TAFBIH
TAF
KBIH 290520Z 2906/3006 15009KT P6SM BKN200
     FM290700 34008KT P6SM FEW150 BKN200
     FM291900 17014G24KT P6SM FEW120 SCT150 BKN250
     FM300500 16008KT P6SM FEW150 BKN250=



000
FTUS45 KVEF 290520
TAFLAS
TAF
KLAS 290520Z 2906/3006 23010KT P6SM FEW120 BKN200
     FM291500 VRB05KT P6SM FEW150 BKN250
     FM292000 19010KT P6SM SCT130 BKN250=



000
FTUS45 KVEF 290520
TAFBIH
TAF
KBIH 290520Z 2906/3006 15009KT P6SM BKN200
     FM290700 34008KT P6SM FEW150 BKN200
     FM291900 17014G24KT P6SM FEW120 SCT150 BKN250
     FM300500 16008KT P6SM FEW150 BKN250=



000
FTUS45 KVEF 290520
TAFVGT
TAF
KVGT 290520Z 2906/3006 27007KT P6SM FEW120 BKN200
     FM290700 33006KT P6SM FEW150 BKN200
     FM291600 14007KT P6SM FEW140 BKN250
     FM292200 18010KT P6SM SCT130 BKN250=



000
FTUS45 KVEF 290520
TAFLAS
TAF
KLAS 290520Z 2906/3006 23010KT P6SM FEW120 BKN200
     FM291500 VRB05KT P6SM FEW150 BKN250
     FM292000 19010KT P6SM SCT130 BKN250=



000
FTUS45 KVEF 290254 AAA
TAFLAS
TAF AMD
KLAS 290254Z 2903/2924 19015G22KT P6SM FEW120 BKN250
     FM290500 21011KT P6SM SCT150 BKN250
     FM291500 VRB05KT P6SM FEW150 BKN250
     FM292000 19010KT P6SM SCT130 BKN250=



000
FTUS45 KVEF 290254 AAA
TAFLAS
TAF AMD
KLAS 290254Z 2903/2924 19015G22KT P6SM FEW120 BKN250
     FM290500 21011KT P6SM SCT150 BKN250
     FM291500 VRB05KT P6SM FEW150 BKN250
     FM292000 19010KT P6SM SCT130 BKN250=



000
FTUS45 KVEF 290254 AAA
TAFLAS
TAF AMD
KLAS 290254Z 2903/2924 19015G22KT P6SM FEW120 BKN250
     FM290500 21011KT P6SM SCT150 BKN250
     FM291500 VRB05KT P6SM FEW150 BKN250
     FM292000 19010KT P6SM SCT130 BKN250=



000
FTUS45 KVEF 282320
TAFLAS
TAF
KLAS 282320Z 2900/2924 20013G22KT P6SM FEW130 BKN250
     FM290400 21011KT P6SM SCT150 BKN250
     FM291500 VRB05KT P6SM FEW150 BKN250
     FM292000 19010KT P6SM SCT130 BKN250=



000
FTUS45 KVEF 282320
TAFDAG
TAF
KDAG 282320Z 2900/2924 29014KT P6SM FEW120 SCT150 BKN250
     FM290200 25012KT P6SM SCT150 BKN250
     FM290700 26009KT P6SM SCT150 BKN250
     FM291800 31012KT P6SM SCT130 BKN250=



000
FTUS45 KVEF 282320
TAFBIH
TAF
KBIH 282320Z 2900/2924 16014G24KT P6SM VCSH SCT100 SCT150 BKN250
     FM290300 17012KT P6SM FEW100 SCT150 BKN250
     FM290700 34008KT P6SM FEW150 BKN250
     FM291900 17014G24KT P6SM FEW120 BKN250=



000
FTUS45 KVEF 282320
TAFVGT
TAF
KVGT 282320Z 2900/2924 21010G18KT P6SM FEW130 BKN250
     FM290400 28012KT P6SM SCT150 BKN250
     FM290700 33006KT P6SM FEW150 BKN250
     FM292000 18010KT P6SM SCT130 BKN250=



000
FTUS45 KVEF 282320
TAFBIH
TAF
KBIH 282320Z 2900/2924 16014G24KT P6SM VCSH SCT100 SCT150 BKN250
     FM290300 17012KT P6SM FEW100 SCT150 BKN250
     FM290700 34008KT P6SM FEW150 BKN250
     FM291900 17014G24KT P6SM FEW120 BKN250=



000
FTUS45 KVEF 282320
TAFEED
TAF
KEED 282320Z 2900/2924 24008KT P6SM FEW130 SCT250
     FM290400 15008KT P6SM SCT150 BKN250
     FM290700 25007KT P6SM SCT150 BKN250
     FM291900 19008KT P6SM FEW130 BKN250=



000
FTUS45 KVEF 282320
TAFEED
TAF
KEED 282320Z 2900/2924 24008KT P6SM FEW130 SCT250
     FM290400 15008KT P6SM SCT150 BKN250
     FM290700 25007KT P6SM SCT150 BKN250
     FM291900 19008KT P6SM FEW130 BKN250=



000
FTUS45 KVEF 282320
TAFLAS
TAF
KLAS 282320Z 2900/2924 20013G22KT P6SM FEW130 BKN250
     FM290400 21011KT P6SM SCT150 BKN250
     FM291500 VRB05KT P6SM FEW150 BKN250
     FM292000 19010KT P6SM SCT130 BKN250=



000
FTUS45 KVEF 282320
TAFLAS
TAF
KLAS 282320Z 2900/2924 20013G22KT P6SM FEW130 BKN250
     FM290400 21011KT P6SM SCT150 BKN250
     FM291500 VRB05KT P6SM FEW150 BKN250
     FM292000 19010KT P6SM SCT130 BKN250=



000
FTUS45 KVEF 282320
TAFLAS
TAF
KLAS 282320Z 2900/2924 20013G22KT P6SM FEW130 BKN250
     FM290400 21011KT P6SM SCT150 BKN250
     FM291500 VRB05KT P6SM FEW150 BKN250
     FM292000 19010KT P6SM SCT130 BKN250=



000
FTUS45 KVEF 282320
TAFDAG
TAF
KDAG 282320Z 2900/2924 29014KT P6SM FEW120 SCT150 BKN250
     FM290200 25012KT P6SM SCT150 BKN250
     FM290700 26009KT P6SM SCT150 BKN250
     FM291800 31012KT P6SM SCT130 BKN250=



000
FTUS45 KVEF 282320
TAFVGT
TAF
KVGT 282320Z 2900/2924 21010G18KT P6SM FEW130 BKN250
     FM290400 28012KT P6SM SCT150 BKN250
     FM290700 33006KT P6SM FEW150 BKN250
     FM292000 18010KT P6SM SCT130 BKN250=



000
FTUS45 KVEF 282046 AAA
TAFLAS
TAF AMD
KLAS 282046Z 2821/2918 18013G22KT P6SM FEW120 BKN250
     FM290500 21011KT P6SM FEW150 BKN250
     FM291200 18009KT P6SM FEW120 BKN200=



000
FTUS45 KVEF 282046 AAA
TAFLAS
TAF AMD
KLAS 282046Z 2821/2918 18013G22KT P6SM FEW120 BKN250
     FM290500 21011KT P6SM FEW150 BKN250
     FM291200 18009KT P6SM FEW120 BKN200=



000
FTUS45 KVEF 282040 AAB
TAFEED
TAF AMD
KEED 282040Z 2821/2918 22010KT P6SM FEW120 SCT200
     FM290600 23008KT P6SM BKN200 PROB30 2906/2910 10015KT -SHRA
      SCT080 BKN120
     FM291200 VRB05KT P6SM SCT120 BKN250=



000
FTUS45 KVEF 282038 AAA
TAFDAG
TAF AMD
KDAG 282038Z 2821/2918 26014G20KT P6SM SCT120 BKN180
     FM290400 25010KT P6SM SCT120 BKN180
     FM291200 28008KT P6SM VCSH SCT120 BKN180=



000
FTUS45 KVEF 282038 AAA
TAFDAG
TAF AMD
KDAG 282038Z 2821/2918 26014G20KT P6SM SCT120 BKN180
     FM290400 25010KT P6SM SCT120 BKN180
     FM291200 28008KT P6SM VCSH SCT120 BKN180=



000
FTUS45 KVEF 281904 AAA
TAFVGT
TAF AMD
KVGT 281904Z 2819/2918 VRB05KT P6SM FEW120 BKN250
     FM282100 16010G18KT P6SM SCT120 BKN250
     FM290200 21012G20KT P6SM SCT120 BKN250
     FM290500 24010KT P6SM FEW120 BKN250
     FM290800 VRB06KT P6SM BKN200=



000
FTUS45 KVEF 281904 AAA
TAFVGT
TAF AMD
KVGT 281904Z 2819/2918 VRB05KT P6SM FEW120 BKN250
     FM282100 16010G18KT P6SM SCT120 BKN250
     FM290200 21012G20KT P6SM SCT120 BKN250
     FM290500 24010KT P6SM FEW120 BKN250
     FM290800 VRB06KT P6SM BKN200=



000
FTUS45 KVEF 281749 AAA
TAFEED
TAF AMD
KEED 281749Z 2818/2918 21013G20KT P6SM FEW120 BKN200
     FM290400 22012KT P6SM SCT200
     FM290600 23008KT P6SM BKN200 PROB30 2906/2910 10015KT -SHRA
      SCT080 BKN120
     FM291200 VRB05KT P6SM SCT120 BKN250=



000
FTUS45 KVEF 281749 AAA
TAFEED
TAF AMD
KEED 281749Z 2818/2918 21013G20KT P6SM FEW120 BKN200
     FM290400 22012KT P6SM SCT200
     FM290600 23008KT P6SM BKN200 PROB30 2906/2910 10015KT -SHRA
      SCT080 BKN120
     FM291200 VRB05KT P6SM SCT120 BKN250=



000
FTUS45 KVEF 281739
TAFDAG
TAF
KDAG 281739Z 2818/2918 29008KT P6SM FEW080 BKN180
     FM282000 03008KT P6SM SCT120 BKN180
     FM282300 25010KT P6SM SCT120 BKN180
     FM291200 28008KT P6SM VCSH SCT120 BKN180=



000
FTUS45 KVEF 281739
TAFLAS
TAF
KLAS 281739Z 2818/2918 20013G22KT P6SM SCT120 BKN250
     FM290500 21011KT P6SM FEW150 BKN250
     FM291200 18009KT P6SM FEW120 BKN200=



000
FTUS45 KVEF 281739
TAFEED
TAF
KEED 281739Z 2818/2918 21013G20KT P6SM FEW120 BKN200
     FM290400 22012KT P6SM SCT200=



000
FTUS45 KVEF 281739
TAFBIH
TAF
KBIH 281739Z 2818/2918 VRB05KT P6SM SCT120 BKN150
     FM281900 17014G22KT P6SM FEW080 SCT140 SCT250
      TEMPO 2820/2824 -SHRA SCT080 BKN120
     FM290400 34008KT P6SM SCT120 BKN200
     FM291200 VRB05KT P6SM SCT120 BKN200=



000
FTUS45 KVEF 281739
TAFLAS
TAF
KLAS 281739Z 2818/2918 20013G22KT P6SM SCT120 BKN250
     FM290500 21011KT P6SM FEW150 BKN250
     FM291200 18009KT P6SM FEW120 BKN200=



000
FTUS45 KVEF 281739
TAFVGT
TAF
KVGT 281739Z 2818/2918 VRB05KT P6SM FEW120 BKN250
     FM281900 16010G18KT P6SM SCT120 BKN250
     FM290200 21012G20KT P6SM SCT120 BKN250
     FM290500 24010KT P6SM FEW120 BKN250
     FM290800 VRB06KT P6SM BKN200=



000
FTUS45 KVEF 281446 AAA
TAFDAG
TAF AMD
KDAG 281446Z 2815/2912 28008KT P6SM -SHRA SCT080 BKN120
     FM281600 29008KT P6SM FEW080 BKN180
     FM282200 27010KT P6SM SCT120 BKN180=



000
FTUS45 KVEF 281446 AAA
TAFDAG
TAF AMD
KDAG 281446Z 2815/2912 28008KT P6SM -SHRA SCT080 BKN120
     FM281600 29008KT P6SM FEW080 BKN180
     FM282200 27010KT P6SM SCT120 BKN180=



000
FTUS45 KVEF 281442 AAB
TAFLAS
TAF AMD
KLAS 281442Z 2815/2912 17012KT P6SM SCT150 BKN250
     FM281800 20013G22KT P6SM SCT120 BKN250
     FM290500 21011KT P6SM FEW150 BKN250=



000
FTUS45 KVEF 281442 AAB
TAFLAS
TAF AMD
KLAS 281442Z 2815/2912 17012KT P6SM SCT150 BKN250
     FM281800 20013G22KT P6SM SCT120 BKN250
     FM290500 21011KT P6SM FEW150 BKN250=



000
FTUS45 KVEF 281442 AAB
TAFLAS
TAF AMD
KLAS 281442Z 2815/2912 17012KT P6SM SCT150 BKN250
     FM281800 20013G22KT P6SM SCT120 BKN250
     FM290500 21011KT P6SM FEW150 BKN250=



000
FTUS45 KVEF 281442 AAB
TAFLAS
TAF AMD
KLAS 281442Z 2815/2912 17012KT P6SM SCT150 BKN250
     FM281800 20013G22KT P6SM SCT120 BKN250
     FM290500 21011KT P6SM FEW150 BKN250=



    US Dept of Commerce
    National Oceanic and Atmospheric Administration
    National Weather Service
    1325 East West Highway
    Silver Spring, MD 20910
    Page Author: NWS Internet Services Team
Disclaimer
Information Quality
Credits
Glossary
Privacy Policy
Freedom of Information Act (FOIA)
About Us
Career Opportunities